Impacts METAR Board
IDs:

KIAD - Washington/Dulles In, VA, US

Updated at: 1200 UTC 09 Jul 2020
Potential Impact None Slight Moderate High
Time 09/00Z 09/01Z 09/02Z 09/03Z 09/04Z 09/05Z 09/06Z 09/07Z 09/08Z 09/09Z 09/10Z 09/11Z 09/12Z
Temp85 81 79 77 76 76 74 70 70 72 71 73 77
Dewpt68 64 64 64 66 69 68 67 67 69 69 70 72
Altim29.93 29.95 29.96 29.96 29.95 29.94 29.95 29.96 29.95 29.95 29.96 29.98 29.99
VIS10 10 10 10 10 10 10 10 10 10 9 10 10
CIG-- -- -- -- -- -- -- -- -- -- -- -- --
CoverCLRFEWFEWFEWCLRCLRCLRCLRCLRSCTFEWFEWFEW
FltCatVFRVFRVFRVFRVFRVFRVFRVFRVFRVFRVFRVFRVFR
WX--------------------------
WDir15012016015016017000601400130100
WSpd8 5 4 3 4 3 0 0 3 5 0 3 3
WGst-- -- -- -- -- -- -- -- -- -- -- -- --
Raw hourly METARs
KIAD 082352Z 15008KT 10SM CLR 29/20 A2993 RMK AO2 SLP130 T02940200 10328 20294 55000
KIAD 090052Z 12005KT 10SM FEW070 FEW140 27/18 A2995 RMK AO2 SLP137 T02720178
KIAD 090152Z 16004KT 10SM FEW140 26/18 A2996 RMK AO2 SLP141 T02610178
KIAD 090252Z 15003KT 10SM FEW140 FEW200 25/18 A2996 RMK AO2 SLP143 T02500178 51012
KIAD 090352Z 16004KT 10SM CLR 24/19 A2995 RMK AO2 SLP140 T02440189
KIAD 090452Z 17003KT 10SM CLR 24/21 A2994 RMK AO2 SLP135 T02440206 403280228
KIAD 090552Z 00000KT 10SM CLR 23/20 A2995 RMK AO2 SLP138 T02330200 10294 20222 55005
KIAD 090652Z 00000KT 10SM CLR 21/19 A2996 RMK AO2 SLP140 T02110194
KIAD 090752Z 06003KT 10SM CLR 21/19 A2995 RMK AO2 SLP139 T02110194
KIAD 090852Z 14005KT 10SM SCT015 22/21 A2995 RMK AO2 SLP139 T02220206 51001
KIAD 090952Z 00000KT 9SM FEW120 22/21 A2996 RMK AO2 SLP141 T02170206
KIAD 091052Z 13003KT 10SM FEW120 23/21 A2998 RMK AO2 SLP147 T02280211
KIAD 091152Z 10003KT 10SM FEW016 FEW120 25/22 A2999 RMK AO2 SLP151 T02500222 10250 20206 53012



Page loaded:  12:06 UTC  |   05:06 AM Pacific  |   06:06 AM Mountain  |   07:06 AM Central  |   08:06 AM Eastern

 

ADVISORIES

FORECASTS

FORECASTS

OBSERVATIONS

USER TOOLS

ABOUT US